sensor_id;sensor_type;location;lat;lon;timestamp;pressure;altitude;pressure_sealevel;temperature;humidity
58622;BME280;44389;51.578;5.456;2023-03-21T00:01:11;101573.84;;;8.35;100.00
58622;BME280;44389;51.578;5.456;2023-03-21T00:03:37;101569.38;;;8.31;100.00
58622;BME280;44389;51.578;5.456;2023-03-21T00:06:10;101568.25;;;8.26;100.00
58622;BME280;44389;51.578;5.456;2023-03-21T00:08:37;101567.22;;;8.22;100.00
58622;BME280;44389;51.578;5.456;2023-03-21T00:11:04;101556.94;;;8.22;100.00
58622;BME280;44389;51.578;5.456;2023-03-21T00:13:31;101566.34;;;8.21;100.00
58622;BME280;44389;51.578;5.456;2023-03-21T00:16:03;101561.22;;;8.21;100.00
58622;BME280;44389;51.578;5.456;2023-03-21T00:18:28;101554.31;;;8.20;100.00
58622;BME280;44389;51.578;5.456;2023-03-21T00:20:58;101550.75;;;8.18;100.00
58622;BME280;44389;51.578;5.456;2023-03-21T00:23:27;101555.75;;;8.15;100.00
58622;BME280;44389;51.578;5.456;2023-03-21T00:25:53;101553.03;;;8.12;100.00
58622;BME280;44389;51.578;5.456;2023-03-21T00:28:19;101545.16;;;8.09;100.00
58622;BME280;44389;51.578;5.456;2023-03-21T00:30:45;101537.38;;;8.07;100.00
58622;BME280;44389;51.578;5.456;2023-03-21T00:33:10;101543.41;;;8.08;100.00
58622;BME280;44389;51.578;5.456;2023-03-21T00:35:38;101539.97;;;8.07;100.00
58622;BME280;44389;51.578;5.456;2023-03-21T00:38:03;101543.41;;;8.08;100.00
58622;BME280;44389;51.578;5.456;2023-03-21T00:40:28;101533.06;;;8.06;100.00
58622;BME280;44389;51.578;5.456;2023-03-21T00:42:54;101526.16;;;8.05;100.00
58622;BME280;44389;51.578;5.456;2023-03-21T00:45:19;101521.00;;;8.05;100.00
58622;BME280;44389;51.578;5.456;2023-03-21T00:47:46;101523.50;;;8.04;100.00
58622;BME280;44389;51.578;5.456;2023-03-21T00:50:11;101521.75;;;8.03;100.00
58622;BME280;44389;51.578;5.456;2023-03-21T00:52:37;101520.00;;;8.02;100.00
58622;BME280;44389;51.578;5.456;2023-03-21T00:55:03;101522.56;;;8.02;100.00
58622;BME280;44389;51.578;5.456;2023-03-21T00:57:30;101514.03;;;8.03;100.00
58622;BME280;44389;51.578;5.456;2023-03-21T00:59:55;101511.47;;;8.03;100.00
58622;BME280;44389;51.578;5.456;2023-03-21T01:02:23;101509.94;;;8.06;100.00
58622;BME280;44389;51.578;5.456;2023-03-21T01:04:52;101510.03;;;8.08;100.00
58622;BME280;44389;51.578;5.456;2023-03-21T01:07:17;101500.72;;;8.10;100.00
58622;BME280;44389;51.578;5.456;2023-03-21T01:09:43;101498.16;;;8.10;100.00
58622;BME280;44389;51.578;5.456;2023-03-21T01:12:08;101498.28;;;8.13;100.00
58622;BME280;44389;51.578;5.456;2023-03-21T01:14:34;101498.41;;;8.15;100.00
58622;BME280;44389;51.578;5.456;2023-03-21T01:17:00;101500.13;;;8.16;100.00
58622;BME280;44389;51.578;5.456;2023-03-21T01:19:26;101489.97;;;8.17;100.00
58622;BME280;44389;51.578;5.456;2023-03-21T01:21:52;101485.69;;;8.18;100.00
58622;BME280;44389;51.578;5.456;2023-03-21T01:24:18;101488.34;;;8.19;100.00
58622;BME280;44389;51.578;5.456;2023-03-21T01:26:43;101487.53;;;8.20;100.00
58622;BME280;44389;51.578;5.456;2023-03-21T01:29:08;101478.97;;;8.20;100.00
58622;BME280;44389;51.578;5.456;2023-03-21T01:31:34;101476.47;;;8.21;100.00
58622;BME280;44389;51.578;5.456;2023-03-21T01:33:59;101468.75;;;8.21;100.00
58622;BME280;44389;51.578;5.456;2023-03-21T01:36:25;101463.63;;;8.21;100.00
58622;BME280;44389;51.578;5.456;2023-03-21T01:38:52;101468.75;;;8.21;100.00
58622;BME280;44389;51.578;5.456;2023-03-21T01:43:46;101456.00;;;8.23;100.00
58622;BME280;44389;51.578;5.456;2023-03-21T01:49:01;101454.28;;;8.23;100.00
58622;BME280;44389;51.578;5.456;2023-03-21T01:51:29;101460.25;;;8.22;100.00
58622;BME280;44389;51.578;5.456;2023-03-21T01:53:57;101458.56;;;8.23;100.00
58622;BME280;44389;51.578;5.456;2023-03-21T01:56:31;101462.00;;;8.23;100.00
58622;BME280;44389;51.578;5.456;2023-03-21T01:59:25;101461.28;;;8.26;100.00
58622;BME280;44389;51.578;5.456;2023-03-21T02:01:55;101453.44;;;8.23;100.00
58622;BME280;44389;51.578;5.456;2023-03-21T02:04:21;101449.16;;;8.23;100.00
58622;BME280;44389;51.578;5.456;2023-03-21T02:07:03;101443.22;;;8.24;100.00
58622;BME280;44389;51.578;5.456;2023-03-21T02:09:32;101441.44;;;8.23;100.00
58622;BME280;44389;51.578;5.456;2023-03-21T02:11:59;101441.44;;;8.23;100.00
58622;BME280;44389;51.578;5.456;2023-03-21T02:14:30;101432.94;;;8.24;100.00
58622;BME280;44389;51.578;5.456;2023-03-21T02:20:10;101426.22;;;8.27;100.00
58622;BME280;44389;51.578;5.456;2023-03-21T02:26:08;101421.16;;;8.28;100.00
58622;BME280;44389;51.578;5.456;2023-03-21T02:34:27;101419.38;;;8.27;100.00
58622;BME280;44389;51.578;5.456;2023-03-21T02:37:11;101418.50;;;8.27;100.00
58622;BME280;44389;51.578;5.456;2023-03-21T02:45:44;101404.63;;;8.23;100.00
58622;BME280;44389;51.578;5.456;2023-03-21T02:48:15;101408.91;;;8.22;100.00
58622;BME280;44389;51.578;5.456;2023-03-21T02:50:50;101405.50;;;8.23;100.00
58622;BME280;44389;51.578;5.456;2023-03-21T02:53:19;101406.34;;;8.22;100.00
58622;BME280;44389;51.578;5.456;2023-03-21T02:55:46;101402.00;;;8.21;100.00
58622;BME280;44389;51.578;5.456;2023-03-21T02:58:14;101396.81;;;8.20;100.00
58622;BME280;44389;51.578;5.456;2023-03-21T03:00:42;101394.13;;;8.18;100.00
58622;BME280;44389;51.578;5.456;2023-03-21T03:03:08;101390.63;;;8.16;100.00
58622;BME280;44389;51.578;5.456;2023-03-21T03:05:36;101398.91;;;8.11;100.00
58622;BME280;44389;51.578;5.456;2023-03-21T03:13:57;101387.31;;;8.01;100.00
58622;BME280;44389;51.578;5.456;2023-03-21T03:19:03;101380.03;;;7.92;100.00
58622;BME280;44389;51.578;5.456;2023-03-21T03:21:41;101384.75;;;8.01;100.00
58622;BME280;44389;51.578;5.456;2023-03-21T03:24:23;101381.75;;;7.91;100.00
58622;BME280;44389;51.578;5.456;2023-03-21T03:27:07;101380.72;;;7.88;100.00
58622;BME280;44389;51.578;5.456;2023-03-21T03:29:37;101371.16;;;7.85;100.00
58622;BME280;44389;51.578;5.456;2023-03-21T03:32:15;101369.41;;;7.84;100.00
58622;BME280;44389;51.578;5.456;2023-03-21T03:34:45;101368.44;;;7.82;100.00
58622;BME280;44389;51.578;5.456;2023-03-21T03:37:19;101371.00;;;7.82;100.00
58622;BME280;44389;51.578;5.456;2023-03-21T03:39:50;101367.63;;;7.83;100.00
58622;BME280;44389;51.578;5.456;2023-03-21T03:42:21;101366.78;;;7.83;100.00
58622;BME280;44389;51.578;5.456;2023-03-21T03:44:48;101365.06;;;7.83;100.00
58622;BME280;44389;51.578;5.456;2023-03-21T03:47:35;101365.13;;;7.85;100.00
58622;BME280;44389;51.578;5.456;2023-03-21T03:50:11;101360.84;;;7.84;100.00
58622;BME280;44389;51.578;5.456;2023-03-21T03:52:51;101358.28;;;7.84;100.00
58622;BME280;44389;51.578;5.456;2023-03-21T03:55:20;101359.13;;;7.84;100.00
58622;BME280;44389;51.578;5.456;2023-03-21T03:57:46;101351.44;;;7.84;100.00
58622;BME280;44389;51.578;5.456;2023-03-21T04:00:13;101354.88;;;7.85;100.00
58622;BME280;44389;51.578;5.456;2023-03-21T04:02:40;101359.13;;;7.84;100.00
58622;BME280;44389;51.578;5.456;2023-03-21T04:05:05;101355.78;;;7.85;100.00
58622;BME280;44389;51.578;5.456;2023-03-21T04:07:31;101351.50;;;7.86;100.00
58622;BME280;44389;51.578;5.456;2023-03-21T04:09:56;101348.22;;;7.88;100.00
58622;BME280;44389;51.578;5.456;2023-03-21T04:12:22;101350.78;;;7.88;100.00
58622;BME280;44389;51.578;5.456;2023-03-21T04:14:48;101350.78;;;7.88;100.00
58622;BME280;44389;51.578;5.456;2023-03-21T04:17:14;101349.19;;;7.90;100.00
58622;BME280;44389;51.578;5.456;2023-03-21T04:19:40;101337.16;;;7.89;100.00
58622;BME280;44389;51.578;5.456;2023-03-21T04:22:05;101341.47;;;7.90;100.00
58622;BME280;44389;51.578;5.456;2023-03-21T04:24:31;101333.78;;;7.90;100.00
58622;BME280;44389;51.578;5.456;2023-03-21T04:26:58;101339.84;;;7.93;100.00
58622;BME280;44389;51.578;5.456;2023-03-21T04:29:23;101338.97;;;7.92;100.00
58622;BME280;44389;51.578;5.456;2023-03-21T04:31:49;101332.06;;;7.91;100.00
58622;BME280;44389;51.578;5.456;2023-03-21T04:34:14;101332.16;;;7.93;100.00
58622;BME280;44389;51.578;5.456;2023-03-21T04:36:40;101329.56;;;7.93;100.00
58622;BME280;44389;51.578;5.456;2023-03-21T04:39:12;101330.53;;;7.95;100.00
58622;BME280;44389;51.578;5.456;2023-03-21T04:41:42;101333.97;;;7.95;100.00
58622;BME280;44389;51.578;5.456;2023-03-21T04:44:09;101322.13;;;7.97;100.00
58622;BME280;44389;51.578;5.456;2023-03-21T04:46:35;101316.25;;;8.00;100.00
58622;BME280;44389;51.578;5.456;2023-03-21T04:49:02;101321.44;;;8.01;100.00
58622;BME280;44389;51.578;5.456;2023-03-21T04:51:27;101315.56;;;8.04;100.00
58622;BME280;44389;51.578;5.456;2023-03-21T04:53:53;101309.56;;;8.03;100.00
58622;BME280;44389;51.578;5.456;2023-03-21T04:56:22;101313.19;;;8.07;100.00
58622;BME280;44389;51.578;5.456;2023-03-21T04:58:54;101307.22;;;8.08;100.00
58622;BME280;44389;51.578;5.456;2023-03-21T05:01:20;101303.84;;;8.09;100.00
58622;BME280;44389;51.578;5.456;2023-03-21T05:03:45;101305.59;;;8.10;100.00
58622;BME280;44389;51.578;5.456;2023-03-21T05:06:11;101302.38;;;8.14;100.00
58622;BME280;44389;51.578;5.456;2023-03-21T05:08:36;101306.63;;;8.14;100.00
58622;BME280;44389;51.578;5.456;2023-03-21T05:11:02;101300.75;;;8.16;100.00
58622;BME280;44389;51.578;5.456;2023-03-21T05:13:28;101305.09;;;8.17;100.00
58622;BME280;44389;51.578;5.456;2023-03-21T05:15:53;101304.25;;;8.18;100.00
58622;BME280;44389;51.578;5.456;2023-03-21T05:18:18;101300.03;;;8.19;100.00
58622;BME280;44389;51.578;5.456;2023-03-21T05:20:50;101304.25;;;8.18;100.00
58622;BME280;44389;51.578;5.456;2023-03-21T05:23:19;101306.03;;;8.19;100.00
58622;BME280;44389;51.578;5.456;2023-03-21T05:25:44;101299.13;;;8.18;100.00
58622;BME280;44389;51.578;5.456;2023-03-21T05:28:10;101297.53;;;8.20;100.00
58622;BME280;44389;51.578;5.456;2023-03-21T05:30:35;101306.09;;;8.21;100.00
58622;BME280;44389;51.578;5.456;2023-03-21T05:33:00;101304.44;;;8.21;100.00
58622;BME280;44389;51.578;5.456;2023-03-21T05:35:26;101300.16;;;8.22;100.00
58622;BME280;44389;51.578;5.456;2023-03-21T05:37:51;101291.53;;;8.20;100.00
58622;BME280;44389;51.578;5.456;2023-03-21T05:40:17;101301.06;;;8.22;100.00
58622;BME280;44389;51.578;5.456;2023-03-21T05:42:42;101295.09;;;8.23;100.00
58622;BME280;44389;51.578;5.456;2023-03-21T05:45:08;101295.19;;;8.25;100.00
58622;BME280;44389;51.578;5.456;2023-03-21T05:47:33;101302.06;;;8.26;100.00
58622;BME280;44389;51.578;5.456;2023-03-21T05:49:59;101300.31;;;8.25;100.00
58622;BME280;44389;51.578;5.456;2023-03-21T05:52:24;101301.19;;;8.26;100.00
58622;BME280;44389;51.578;5.456;2023-03-21T05:54:50;101292.69;;;8.27;100.00
58622;BME280;44389;51.578;5.456;2023-03-21T05:57:15;101292.69;;;8.27;100.00
58622;BME280;44389;51.578;5.456;2023-03-21T05:59:43;101291.88;;;8.28;100.00
58622;BME280;44389;51.578;5.456;2023-03-21T06:02:08;101291.94;;;8.29;100.00
58622;BME280;44389;51.578;5.456;2023-03-21T06:04:34;101295.38;;;8.30;100.00
58622;BME280;44389;51.578;5.456;2023-03-21T06:06:59;101296.34;;;8.32;100.00
58622;BME280;44389;51.578;5.456;2023-03-21T06:09:24;101295.53;;;8.33;100.00
58622;BME280;44389;51.578;5.456;2023-03-21T06:11:52;101305.06;;;8.35;100.00
58622;BME280;44389;51.578;5.456;2023-03-21T06:14:18;101298.22;;;8.36;100.00
58622;BME280;44389;51.578;5.456;2023-03-21T06:16:44;101290.59;;;8.37;100.00
58622;BME280;44389;51.578;5.456;2023-03-21T06:19:09;101297.56;;;8.40;100.00
58622;BME280;44389;51.578;5.456;2023-03-21T06:21:34;101297.88;;;8.46;100.00
58622;BME280;44389;51.578;5.456;2023-03-21T06:24:00;101298.84;;;8.48;100.00
58622;BME280;44389;51.578;5.456;2023-03-21T06:26:25;101296.41;;;8.51;100.00
58622;BME280;44389;51.578;5.456;2023-03-21T06:28:51;101301.75;;;8.56;100.00
58622;BME280;44389;51.578;5.456;2023-03-21T06:31:17;101308.72;;;8.59;100.00
58622;BME280;44389;51.578;5.456;2023-03-21T06:33:43;101304.66;;;8.64;100.00
58622;BME280;44389;51.578;5.456;2023-03-21T06:36:08;101309.88;;;8.65;100.00
58622;BME280;44389;51.578;5.456;2023-03-21T06:38:34;101308.22;;;8.67;100.00
58622;BME280;44389;51.578;5.456;2023-03-21T06:41:03;101315.13;;;8.68;100.00
58622;BME280;44389;51.578;5.456;2023-03-21T06:43:29;101315.88;;;8.66;100.00
58622;BME280;44389;51.578;5.456;2023-03-21T06:45:56;101307.97;;;8.61;100.00
58622;BME280;44389;51.578;5.456;2023-03-21T06:48:21;101312.97;;;8.58;100.00
58622;BME280;44389;51.578;5.456;2023-03-21T06:50:51;101309.31;;;8.53;100.00
58622;BME280;44389;51.578;5.456;2023-03-21T06:53:17;101315.13;;;8.49;100.00
58622;BME280;44389;51.578;5.456;2023-03-21T06:55:48;101312.47;;;8.47;100.00
58622;BME280;44389;51.578;5.456;2023-03-21T06:58:13;101304.59;;;8.44;100.00
58622;BME280;44389;51.578;5.456;2023-03-21T07:00:38;101308.91;;;8.45;100.00
58622;BME280;44389;51.578;5.456;2023-03-21T07:03:04;101307.03;;;8.41;100.00
58622;BME280;44389;51.578;5.456;2023-03-21T07:05:29;101305.19;;;8.38;100.00
58622;BME280;44389;51.578;5.456;2023-03-21T07:07:54;101312.97;;;8.40;100.00
58622;BME280;44389;51.578;5.456;2023-03-21T07:10:20;101314.66;;;8.39;100.00
58622;BME280;44389;51.578;5.456;2023-03-21T07:12:45;101320.53;;;8.37;100.00
58622;BME280;44389;51.578;5.456;2023-03-21T07:15:10;101326.41;;;8.34;100.00
58622;BME280;44389;51.578;5.456;2023-03-21T07:17:36;101325.53;;;8.34;100.00
58622;BME280;44389;51.578;5.456;2023-03-21T07:20:02;101325.53;;;8.34;100.00
58622;BME280;44389;51.578;5.456;2023-03-21T07:22:30;101325.53;;;8.34;100.00
58622;BME280;44389;51.578;5.456;2023-03-21T07:24:56;101323.06;;;8.35;100.00
58622;BME280;44389;51.578;5.456;2023-03-21T07:27:21;101323.06;;;8.35;100.00
58622;BME280;44389;51.578;5.456;2023-03-21T07:29:46;101334.19;;;8.36;100.00
58622;BME280;44389;51.578;5.456;2023-03-21T07:32:12;101329.91;;;8.36;100.00
58622;BME280;44389;51.578;5.456;2023-03-21T07:34:37;101332.59;;;8.38;100.00
58622;BME280;44389;51.578;5.456;2023-03-21T07:37:03;101328.31;;;8.38;100.00
58622;BME280;44389;51.578;5.456;2023-03-21T07:39:29;101330.03;;;8.38;100.00
58622;BME280;44389;51.578;5.456;2023-03-21T07:41:54;101323.91;;;8.36;100.00
58622;BME280;44389;51.578;5.456;2023-03-21T07:44:21;101323.97;;;8.37;100.00
58622;BME280;44389;51.578;5.456;2023-03-21T07:46:47;101326.63;;;8.39;100.00
58622;BME280;44389;51.578;5.456;2023-03-21T07:49:12;101312.03;;;8.38;100.00
58622;BME280;44389;51.578;5.456;2023-03-21T07:51:37;101318.03;;;8.38;100.00
58622;BME280;44389;51.578;5.456;2023-03-21T07:54:03;101324.03;;;8.39;100.00
58622;BME280;44389;51.578;5.456;2023-03-21T07:56:28;101319.81;;;8.39;100.00
58622;BME280;44389;51.578;5.456;2023-03-21T07:58:53;101307.84;;;8.40;100.00
58622;BME280;44389;51.578;5.456;2023-03-21T08:01:20;101306.91;;;8.38;100.00
58622;BME280;44389;51.578;5.456;2023-03-21T08:03:46;101300.88;;;8.37;100.00
58622;BME280;44389;51.578;5.456;2023-03-21T08:06:12;101301.75;;;8.38;100.00
58622;BME280;44389;51.578;5.456;2023-03-21T08:08:37;101293.22;;;8.39;100.00
58622;BME280;44389;51.578;5.456;2023-03-21T08:11:04;101294.19;;;8.41;100.00
58622;BME280;44389;51.578;5.456;2023-03-21T08:13:29;101289.19;;;8.44;100.00
58622;BME280;44389;51.578;5.456;2023-03-21T08:15:55;101289.31;;;8.46;100.00
58622;BME280;44389;51.578;5.456;2023-03-21T08:18:20;101288.56;;;8.48;100.00
58622;BME280;44389;51.578;5.456;2023-03-21T08:20:50;101285.31;;;8.52;100.00
58622;BME280;44389;51.578;5.456;2023-03-21T08:23:16;101270.19;;;8.59;100.00
58622;BME280;44389;51.578;5.456;2023-03-21T08:25:41;101265.84;;;8.57;100.00
58622;BME280;44389;51.578;5.456;2023-03-21T08:28:06;101271.06;;;8.59;100.00
58622;BME280;44389;51.578;5.456;2023-03-21T08:30:32;101270.31;;;8.62;100.00
58622;BME280;44389;51.578;5.456;2023-03-21T08:32:58;101263.56;;;8.64;100.00
58622;BME280;44389;51.578;5.456;2023-03-21T08:35:24;101263.56;;;8.64;100.00
58622;BME280;44389;51.578;5.456;2023-03-21T08:37:50;101261.78;;;8.63;100.00
58622;BME280;44389;51.578;5.456;2023-03-21T08:40:17;101262.59;;;8.62;100.00
58622;BME280;44389;51.578;5.456;2023-03-21T08:42:42;101261.78;;;8.63;100.00
58622;BME280;44389;51.578;5.456;2023-03-21T08:45:09;101270.38;;;8.63;100.00
58622;BME280;44389;51.578;5.456;2023-03-21T08:47:35;101267.06;;;8.66;100.00
58622;BME280;44389;51.578;5.456;2023-03-21T08:50:00;101265.44;;;8.68;100.00
58622;BME280;44389;51.578;5.456;2023-03-21T08:52:26;101267.28;;;8.70;100.00
58622;BME280;44389;51.578;5.456;2023-03-21T08:54:52;101261.38;;;8.73;100.00
58622;BME280;44389;51.578;5.456;2023-03-21T08:57:17;101251.91;;;8.72;100.00
58622;BME280;44389;51.578;5.456;2023-03-21T08:59:43;101247.50;;;8.69;100.00
58622;BME280;44389;51.578;5.456;2023-03-21T09:02:10;101249.22;;;8.69;100.00
58622;BME280;44389;51.578;5.456;2023-03-21T09:04:37;101245.75;;;8.68;100.00
58622;BME280;44389;51.578;5.456;2023-03-21T09:07:02;101244.19;;;8.72;100.00
58622;BME280;44389;51.578;5.456;2023-03-21T09:09:29;101247.84;;;8.77;100.00
58622;BME280;44389;51.578;5.456;2023-03-21T09:11:55;101241.16;;;8.81;100.00
58622;BME280;44389;51.578;5.456;2023-03-21T09:14:20;101243.97;;;8.87;100.00
58622;BME280;44389;51.578;5.456;2023-03-21T09:16:45;101241.59;;;8.92;100.00
58622;BME280;44389;51.578;5.456;2023-03-21T09:19:10;101244.28;;;8.95;100.00
58622;BME280;44389;51.578;5.456;2023-03-21T09:21:37;101238.56;;;9.00;100.00
58622;BME280;44389;51.578;5.456;2023-03-21T09:24:03;101237.91;;;9.06;100.00
58622;BME280;44389;51.578;5.456;2023-03-21T09:26:29;101244.81;;;9.07;100.00
58622;BME280;44389;51.578;5.456;2023-03-21T09:28:55;101239.06;;;9.13;100.00
58622;BME280;44389;51.578;5.456;2023-03-21T09:31:21;101235.81;;;9.17;100.00
58622;BME280;44389;51.578;5.456;2023-03-21T09:33:53;101236.03;;;9.23;100.00
58622;BME280;44389;51.578;5.456;2023-03-21T09:36:20;101230.28;;;9.29;100.00
58622;BME280;44389;51.578;5.456;2023-03-21T09:38:49;101221.06;;;9.34;100.00
58622;BME280;44389;51.578;5.456;2023-03-21T09:41:31;101230.78;;;9.41;100.00
58622;BME280;44389;51.578;5.456;2023-03-21T09:44:15;101231.66;;;9.42;100.00
58622;BME280;44389;51.578;5.456;2023-03-21T09:46:51;101226.53;;;9.42;100.00
58622;BME280;44389;51.578;5.456;2023-03-21T09:49:22;101219.81;;;9.45;100.00
58622;BME280;44389;51.578;5.456;2023-03-21T09:51:51;101221.69;;;9.49;100.00
58622;BME280;44389;51.578;5.456;2023-03-21T09:54:26;101219.97;;;9.50;100.00
58622;BME280;44389;51.578;5.456;2023-03-21T09:56:54;101213.38;;;9.56;100.00
58622;BME280;44389;51.578;5.456;2023-03-21T09:59:40;101217.09;;;9.63;100.00
58622;BME280;44389;51.578;5.456;2023-03-21T10:02:48;101216.56;;;9.72;100.00
58622;BME280;44389;51.578;5.456;2023-03-21T10:05:22;101201.34;;;9.78;100.00
58622;BME280;44389;51.578;5.456;2023-03-21T10:10:19;101197.03;;;10.00;100.00
58622;BME280;44389;51.578;5.456;2023-03-21T10:12:48;101193.94;;;10.09;100.00
58622;BME280;44389;51.578;5.456;2023-03-21T10:15:18;101197.59;;;10.15;100.00
58622;BME280;44389;51.578;5.456;2023-03-21T10:17:49;101196.06;;;10.20;100.00
58622;BME280;44389;51.578;5.456;2023-03-21T10:20:17;101191.00;;;10.24;100.00
58622;BME280;44389;51.578;5.456;2023-03-21T10:22:44;101190.34;;;10.28;100.00
58622;BME280;44389;51.578;5.456;2023-03-21T10:25:15;101188.72;;;10.31;100.00
58622;BME280;44389;51.578;5.456;2023-03-21T10:27:41;101184.91;;;10.44;100.00
58622;BME280;44389;51.578;5.456;2023-03-21T10:30:08;101185.38;;;10.57;100.00
58622;BME280;44389;51.578;5.456;2023-03-21T10:32:40;101179.03;;;10.73;100.00
58622;BME280;44389;51.578;5.456;2023-03-21T10:35:05;101183.59;;;10.80;100.00
58622;BME280;44389;51.578;5.456;2023-03-21T10:37:31;101183.66;;;10.83;100.00
58622;BME280;44389;51.578;5.456;2023-03-21T10:39:56;101184.56;;;10.83;100.00
58622;BME280;44389;51.578;5.456;2023-03-21T10:42:28;101183.16;;;10.93;100.00
58622;BME280;44389;51.578;5.456;2023-03-21T10:44:56;101180.84;;;11.01;100.00
58622;BME280;44389;51.578;5.456;2023-03-21T10:47:32;101182.88;;;11.11;100.00
58622;BME280;44389;51.578;5.456;2023-03-21T10:50:07;101188.28;;;11.19;100.00
58622;BME280;44389;51.578;5.456;2023-03-21T10:52:37;101188.66;;;11.30;100.00
58622;BME280;44389;51.578;5.456;2023-03-21T10:55:26;101192.34;;;11.38;99.06
58622;BME280;44389;51.578;5.456;2023-03-21T10:58:47;101198.28;;;11.35;99.47
58622;BME280;44389;51.578;5.456;2023-03-21T11:00:53;101186.38;;;11.39;97.97
58622;BME280;44389;51.578;5.456;2023-03-21T11:03:37;101189.78;;;11.38;96.94
58622;BME280;44389;51.578;5.456;2023-03-21T11:06:10;101191.06;;;11.52;98.50
58622;BME280;44389;51.578;5.456;2023-03-21T11:08:40;101179.03;;;11.80;95.99
58622;BME280;44389;51.578;5.456;2023-03-21T11:11:09;101172.88;;;12.06;95.63
58622;BME280;44389;51.578;5.456;2023-03-21T11:13:42;101175.78;;;11.88;91.48
58622;BME280;44389;51.578;5.456;2023-03-21T11:16:18;101175.84;;;11.89;92.35
58622;BME280;44389;51.578;5.456;2023-03-21T11:18:49;101179.09;;;11.83;93.53
58622;BME280;44389;51.578;5.456;2023-03-21T11:21:15;101175.78;;;11.88;93.09
58622;BME280;44389;51.578;5.456;2023-03-21T11:23:47;101176.56;;;11.85;91.22
58622;BME280;44389;51.578;5.456;2023-03-21T11:26:24;101180.94;;;11.88;90.49
58622;BME280;44389;51.578;5.456;2023-03-21T11:28:51;101175.84;;;11.89;91.12
58622;BME280;44389;51.578;5.456;2023-03-21T11:31:17;101179.38;;;11.93;89.70
58622;BME280;44389;51.578;5.456;2023-03-21T11:34:04;101177.81;;;11.98;91.97
58622;BME280;44389;51.578;5.456;2023-03-21T11:36:34;101165.91;;;12.03;89.04
58622;BME280;44389;51.578;5.456;2023-03-21T11:39:27;101160.19;;;12.13;89.37
58622;BME280;44389;51.578;5.456;2023-03-21T11:41:54;101149.81;;;12.12;87.34
58622;BME280;44389;51.578;5.456;2023-03-21T11:44:32;101169.72;;;12.16;86.72
58622;BME280;44389;51.578;5.456;2023-03-21T11:46:58;101170.06;;;12.27;86.13
58622;BME280;44389;51.578;5.456;2023-03-21T11:49:23;101170.00;;;12.25;84.93
58622;BME280;44389;51.578;5.456;2023-03-21T11:52:36;101174.19;;;12.20;84.82
58622;BME280;44389;51.578;5.456;2023-03-21T11:55:01;101160.56;;;12.27;85.46
58622;BME280;44389;51.578;5.456;2023-03-21T11:57:33;101157.41;;;12.38;83.80
58622;BME280;44389;51.578;5.456;2023-03-21T12:00:20;101159.63;;;12.56;84.68
58622;BME280;44389;51.578;5.456;2023-03-21T12:05:44;101154.25;;;12.81;81.14
58622;BME280;44389;51.578;5.456;2023-03-21T12:11:10;101149.00;;;12.45;79.20
58622;BME280;44389;51.578;5.456;2023-03-21T12:13:49;101153.03;;;12.35;81.20
58622;BME280;44389;51.578;5.456;2023-03-21T12:16:34;101148.28;;;12.50;81.91
58622;BME280;44389;51.578;5.456;2023-03-21T12:19:24;101131.56;;;12.71;81.38
58622;BME280;44389;51.578;5.456;2023-03-21T12:22:32;101121.53;;;12.83;80.62
58622;BME280;44389;51.578;5.456;2023-03-21T12:25:30;101120.03;;;12.93;80.46
58622;BME280;44389;51.578;5.456;2023-03-21T12:36:58;101113.47;;;13.08;79.70
58622;BME280;44389;51.578;5.456;2023-03-21T12:39:33;101111.78;;;13.08;79.69
58622;BME280;44389;51.578;5.456;2023-03-21T12:44:53;101112.31;;;12.95;78.46
58622;BME280;44389;51.578;5.456;2023-03-21T12:47:23;101116.38;;;12.83;79.06
58622;BME280;44389;51.578;5.456;2023-03-21T12:50:00;101112.78;;;12.78;79.74
58622;BME280;44389;51.578;5.456;2023-03-21T12:52:34;101104.88;;;12.72;80.62
58622;BME280;44389;51.578;5.456;2023-03-21T12:57:44;101100.34;;;13.00;79.13
58622;BME280;44389;51.578;5.456;2023-03-21T13:02:41;101086.44;;;13.33;75.76
58622;BME280;44389;51.578;5.456;2023-03-21T13:05:19;101088.75;;;13.59;74.95
58622;BME280;44389;51.578;5.456;2023-03-21T13:07:50;101091.03;;;13.85;73.62
58622;BME280;44389;51.578;5.456;2023-03-21T13:10:20;101080.25;;;14.09;72.08
58622;BME280;44389;51.578;5.456;2023-03-21T13:13:06;101076.78;;;14.08;71.91
58622;BME280;44389;51.578;5.456;2023-03-21T13:21:14;101078.22;;;13.92;71.68
58622;BME280;44389;51.578;5.456;2023-03-21T13:23:54;101075.72;;;13.97;72.30
58622;BME280;44389;51.578;5.456;2023-03-21T13:26:40;101076.31;;;13.83;72.61
58622;BME280;44389;51.578;5.456;2023-03-21T13:29:25;101076.78;;;13.64;71.71
58622;BME280;44389;51.578;5.456;2023-03-21T13:31:53;101068.66;;;13.90;70.77
58622;BME280;44389;51.578;5.456;2023-03-21T13:34:21;101068.34;;;13.74;69.83
58622;BME280;44389;51.578;5.456;2023-03-21T13:36:47;101070.63;;;13.59;70.63
58622;BME280;44389;51.578;5.456;2023-03-21T13:39:19;101068.22;;;13.68;71.33
58622;BME280;44389;51.578;5.456;2023-03-21T13:41:48;101049.69;;;13.91;71.38
58622;BME280;44389;51.578;5.456;2023-03-21T13:46:58;101051.13;;;14.24;70.70
58622;BME280;44389;51.578;5.456;2023-03-21T13:49:30;101051.25;;;14.30;68.68
58622;BME280;44389;51.578;5.456;2023-03-21T13:51:58;101040.91;;;14.33;67.54
58622;BME280;44389;51.578;5.456;2023-03-21T13:57:00;101037.75;;;14.49;67.83
58622;BME280;44389;51.578;5.456;2023-03-21T13:59:42;101036.22;;;14.61;67.85
58622;BME280;44389;51.578;5.456;2023-03-21T14:04:41;101031.09;;;14.64;65.12
58622;BME280;44389;51.578;5.456;2023-03-21T14:07:11;101027.22;;;14.39;64.83
58622;BME280;44389;51.578;5.456;2023-03-21T14:09:39;101033.25;;;14.39;65.99
58622;BME280;44389;51.578;5.456;2023-03-21T14:12:11;101025.44;;;14.36;66.22